This is the latest recevied weather packets stored in our database for station/object DJ4RO-13. If no packets are shown the sender has not sent any weather packets the latest 10 day(s).
| Time | Temp. | Humidity | Pressure | Rain* | Wind** | Luminosity | Snow |
|---|---|---|---|---|---|---|---|
| 1777615614 | 12.22° C | 64% | 1034.9 hPa | 0 mm | - | 198 W/m² | - |
| 1777615292 | 12.78° C | 63% | 1034.9 hPa | 0 mm | - | 186 W/m² | - |
| 1777614972 | 14.44° C | 57% | 1035 hPa | 0 mm | - | 169 W/m² | - |
| 1777614653 | 14.44° C | 58% | 1034.9 hPa | 0 mm | - | 137 W/m² | - |
| 1777614333 | 13.89° C | 60% | 1035 hPa | 0 mm | - | 102 W/m² | - |
| 1777614012 | 13.33° C | 62% | 1034.9 hPa | 0 mm | - | 87 W/m² | - |
| 1777613692 | 11.11° C | 69% | 1034.9 hPa | 0 mm | - | 78 W/m² | - |
| 1777613372 | 10.56° C | 75% | 1034.9 hPa | 0 mm | - | 70 W/m² | - |
| 1777613052 | 8.89° C | 78% | 1034.9 hPa | 0 mm | - | 66 W/m² | - |
| 1777612732 | 8.33° C | 81% | 1034.7 hPa | 0 mm | - | 60 W/m² | - |
| 1777612412 | 7.22° C | 91% | 1034.6 hPa | 0 mm | - | 56 W/m² | - |
| 1777612093 | 6.11° C | 97% | 1034.9 hPa | 0 mm | - | 53 W/m² | - |
| 1777611773 | 5° C | 99% | 1034.9 hPa | 0 mm | - | 51 W/m² | - |
| 1777611452 | 3.89° C | 99% | 1034.8 hPa | 0 mm | - | 39 W/m² | - |
| 1777611133 | 3.33° C | 99% | 1034.9 hPa | 0 mm | - | 26 W/m² | - |
| 1777610813 | 3.33° C | 99% | 1034.8 hPa | 0 mm | - | 25 W/m² | - |
| 1777610493 | 2.78° C | 99% | 1035 hPa | 0 mm | - | 23 W/m² | - |
| 1777610172 | 2.22° C | 99% | 1035.1 hPa | 0 mm | - | 22 W/m² | - |
| 1777609853 | 2.22° C | 99% | 1034.8 hPa | 0 mm | - | 21 W/m² | - |
| 1777609533 | 2.22° C | 99% | 1034.9 hPa | 0 mm | - | 18 W/m² | - |
| 1777609213 | 1.67° C | 99% | 1034.9 hPa | 0 mm | - | 17 W/m² | - |
| 1777608893 | 1.67° C | 99% | 1034.7 hPa | 0 mm | - | 15 W/m² | - |
| 1777608572 | 1.67° C | 99% | 1034.9 hPa | 0 mm | - | 13 W/m² | - |
| 1777608252 | 2.22° C | 99% | 1034.8 hPa | 0 mm | - | 11 W/m² | - |
| 1777607932 | 1.67° C | 99% | 1034.8 hPa | 0 mm | - | 9 W/m² | - |
* Rain latest hour (hover to see other rain measurements)
** Current wind speed in m/s (hover to see current wind gust speed)